Time;durP1;ratioP1;P1;durP2;ratioP2;P2;SDS_P1;SDS_P2;PMS_P1;PMS_P2;Temp;Humidity;BMP_temperature;BMP_pressure;BME280_temperature;BME280_humidity;BME280_pressure;Samples;Min_cycle;Max_cycle;Signal;HPM_P1;HPM_P2
2023/07/08 00:00:18;;;;;;;5.05;3.50;;;21.20;65.90;;;;;;5006762;28;20030;-60
2023/07/08 00:03:04;;;;;;;6.70;3.10;;;21.20;65.90;;;;;;5003239;28;20030;-65
2023/07/08 00:05:55;;;;;;;7.63;3.75;;;21.20;66.10;;;;;;5010523;28;20041;-60
2023/07/08 00:08:41;;;;;;;6.22;3.88;;;21.20;66.60;;;;;;5012227;28;20037;-60
2023/07/08 00:11:29;;;;;;;4.13;3.30;;;21.10;66.80;;;;;;5009066;28;20347;-61
2023/07/08 00:14:15;;;;;;;8.02;3.80;;;21.10;67.20;;;;;;4992012;28;20058;-60
2023/07/08 00:17:01;;;;;;;5.15;3.58;;;21.00;67.40;;;;;;5002643;28;20462;-60
2023/07/08 00:19:47;;;;;;;6.20;4.03;;;21.00;67.60;;;;;;5007187;28;20502;-60
2023/07/08 00:22:36;;;;;;;4.60;3.50;;;20.90;67.60;;;;;;5002452;28;20033;-59
2023/07/08 00:25:22;;;;;;;4.97;3.55;;;20.90;67.70;;;;;;4999525;28;20038;-60
2023/07/08 00:28:22;;;;;;;6.20;3.25;;;20.80;68.40;;;;;;4992913;28;20399;-60
2023/07/08 00:31:11;;;;;;;6.57;4.43;;;20.80;68.60;;;;;;5007907;28;20053;-60
2023/07/08 00:33:57;;;;;;;6.45;3.92;;;20.80;68.90;;;;;;5010861;28;20124;-61
2023/07/08 00:36:43;;;;;;;6.28;4.03;;;20.70;69.10;;;;;;4990714;28;20046;-60
2023/07/08 00:39:29;;;;;;;6.25;3.80;;;20.70;69.30;;;;;;5003011;28;20057;-61
2023/07/08 00:42:22;;;;;;;9.43;3.90;;;20.70;69.40;;;;;;5011781;28;20030;-60
2023/07/08 00:45:26;;;;;;;6.20;3.95;;;20.60;69.40;;;;;;5007727;28;20041;-60
2023/07/08 00:48:23;;;;;;;5.43;3.60;;;20.60;69.30;;;;;;5011059;28;20038;-60
2023/07/08 00:51:10;;;;;;;5.60;3.25;;;20.60;69.30;;;;;;5006232;28;20103;-60
2023/07/08 00:53:56;;;;;;;4.45;3.47;;;20.50;69.60;;;;;;5010614;28;20034;-60
2023/07/08 00:56:52;;;;;;;6.03;4.03;;;20.50;69.80;;;;;;5005181;28;20038;-60
2023/07/08 00:59:53;;;;;;;4.00;3.13;;;20.40;70.10;;;;;;5008205;28;20038;-60
2023/07/08 01:02:45;;;;;;;7.68;3.40;;;20.40;70.50;;;;;;5006292;28;20034;-60
2023/07/08 01:05:34;;;;;;;5.45;3.90;;;20.40;70.40;;;;;;5000373;28;20652;-61
2023/07/08 01:08:28;;;;;;;6.50;3.72;;;20.40;70.10;;;;;;5015673;28;20092;-61
2023/07/08 01:11:14;;;;;;;7.07;3.53;;;20.30;69.70;;;;;;5003843;28;20101;-59
2023/07/08 01:14:03;;;;;;;6.32;3.20;;;20.30;69.40;;;;;;5008068;28;20046;-60
2023/07/08 01:16:50;;;;;;;5.68;3.83;;;20.30;69.50;;;;;;4999659;28;20088;-61
2023/07/08 01:19:38;;;;;;;6.82;3.15;;;20.30;69.50;;;;;;5004869;28;20061;-61
2023/07/08 01:22:24;;;;;;;6.50;3.17;;;20.30;69.70;;;;;;4989507;28;20045;-60
2023/07/08 01:25:11;;;;;;;4.68;3.03;;;20.20;69.90;;;;;;4994283;28;20538;-61
2023/07/08 01:27:58;;;;;;;4.75;3.25;;;20.20;70.10;;;;;;4989890;28;20403;-61
2023/07/08 01:30:45;;;;;;;5.38;3.40;;;20.20;70.10;;;;;;5006687;28;20058;-60
2023/07/08 01:33:34;;;;;;;5.13;3.20;;;20.20;70.70;;;;;;5010119;28;20045;-60
2023/07/08 01:36:20;;;;;;;3.83;2.97;;;20.10;70.80;;;;;;5003600;28;20044;-61
2023/07/08 01:39:06;;;;;;;5.72;3.40;;;20.10;71.00;;;;;;4996686;28;20054;-61
2023/07/08 01:41:53;;;;;;;6.10;3.80;;;20.10;71.40;;;;;;5010707;28;20038;-60
2023/07/08 01:44:39;;;;;;;9.63;3.83;;;20.10;71.40;;;;;;5006948;28;20121;-61
2023/07/08 01:47:25;;;;;;;4.50;3.38;;;20.00;71.10;;;;;;5003903;28;20030;-61
2023/07/08 01:50:11;;;;;;;4.55;3.42;;;20.00;71.10;;;;;;5008124;28;20113;-61
2023/07/08 01:53:00;;;;;;;5.03;3.55;;;20.00;70.80;;;;;;5007104;28;20030;-61
2023/07/08 01:55:46;;;;;;;5.55;3.42;;;20.00;70.80;;;;;;4996904;28;20447;-60
2023/07/08 01:58:32;;;;;;;5.60;3.85;;;19.90;71.50;;;;;;5000428;28;20041;-61
2023/07/08 02:01:17;;;;;;;5.15;3.28;;;19.90;72.00;;;;;;5007211;28;20038;-61
2023/07/08 02:04:03;;;;;;;6.53;3.47;;;19.90;72.10;;;;;;5009421;28;20403;-62
2023/07/08 02:06:57;;;;;;;6.85;3.78;;;19.90;72.30;;;;;;4994083;28;20121;-61
2023/07/08 02:09:43;;;;;;;4.40;3.25;;;19.80;72.50;;;;;;4996266;28;20097;-60
2023/07/08 02:12:29;;;;;;;5.22;3.10;;;19.80;72.40;;;;;;4994945;28;20065;-60
2023/07/08 02:15:15;;;;;;;5.20;3.80;;;19.80;72.90;;;;;;5011615;28;20037;-61
2023/07/08 02:18:01;;;;;;;5.43;3.15;;;19.70;73.00;;;;;;5011966;28;20033;-60
2023/07/08 02:20:47;;;;;;;6.20;3.60;;;19.70;73.10;;;;;;5007785;28;20046;-61
2023/07/08 02:23:33;;;;;;;5.05;3.47;;;19.70;72.60;;;;;;5013473;28;20030;-60
2023/07/08 02:26:19;;;;;;;4.85;3.03;;;19.70;72.60;;;;;;5011213;28;20030;-60
2023/07/08 02:29:05;;;;;;;4.32;3.22;;;19.60;73.00;;;;;;5000444;28;20101;-60
2023/07/08 02:31:51;;;;;;;6.00;2.78;;;19.60;72.50;;;;;;5006887;28;20557;-61
2023/07/08 02:34:37;;;;;;;5.13;3.42;;;19.60;73.20;;;;;;4998939;28;20501;-61
2023/07/08 02:37:23;;;;;;;4.63;3.22;;;19.60;73.10;;;;;;5008569;28;20144;-61
2023/07/08 02:40:10;;;;;;;6.28;3.00;;;19.60;73.30;;;;;;5001820;28;20445;-61
2023/07/08 02:42:55;;;;;;;5.72;3.25;;;19.60;73.00;;;;;;4995657;28;20088;-61
2023/07/08 02:45:41;;;;;;;5.53;3.00;;;19.60;73.30;;;;;;4995669;28;20093;-61
2023/07/08 02:48:27;;;;;;;5.10;3.33;;;19.60;73.50;;;;;;5012313;28;20122;-61
2023/07/08 02:51:13;;;;;;;4.57;3.15;;;19.60;73.50;;;;;;4996144;28;20080;-60
2023/07/08 02:53:59;;;;;;;4.10;2.97;;;19.50;73.90;;;;;;5009619;28;20034;-62
2023/07/08 02:56:45;;;;;;;5.60;3.33;;;19.50;73.80;;;;;;4994588;28;20065;-61
2023/07/08 02:59:31;;;;;;;5.47;3.63;;;19.40;74.40;;;;;;5003666;28;20045;-61
2023/07/08 03:02:17;;;;;;;5.65;3.58;;;19.40;74.50;;;;;;5011371;28;20096;-62
2023/07/08 03:05:05;;;;;;;8.10;3.60;;;19.40;75.00;;;;;;5010818;28;20112;-62
2023/07/08 03:07:51;;;;;;;5.45;3.83;;;19.40;74.90;;;;;;5010530;28;20061;-62
2023/07/08 03:10:36;;;;;;;5.47;3.42;;;19.40;74.70;;;;;;5005693;28;20049;-63
2023/07/08 03:13:23;;;;;;;6.47;3.35;;;19.30;75.20;;;;;;5013131;28;20099;-63
2023/07/08 03:16:12;;;;;;;6.75;3.47;;;19.30;75.60;;;;;;5004863;28;20053;-63
2023/07/08 03:18:58;;;;;;;5.93;3.42;;;19.30;75.60;;;;;;5004703;28;20056;-63
2023/07/08 03:21:44;;;;;;;7.38;4.35;;;19.30;75.90;;;;;;5000061;28;20034;-62
2023/07/08 03:24:30;;;;;;;5.53;3.95;;;19.40;76.10;;;;;;5018001;28;20038;-62
2023/07/08 03:27:16;;;;;;;4.47;3.10;;;19.40;76.00;;;;;;5011812;28;20065;-63
2023/07/08 03:30:05;;;;;;;6.07;3.65;;;19.30;76.70;;;;;;5009865;28;20034;-63
2023/07/08 03:32:51;;;;;;;4.35;3.25;;;19.30;76.10;;;;;;5012544;28;20795;-63
2023/07/08 03:35:38;;;;;;;3.70;2.97;;;19.30;76.40;;;;;;5008426;28;20037;-63
2023/07/08 03:38:24;;;;;;;6.72;3.53;;;19.30;76.10;;;;;;5012102;28;20117;-62
2023/07/08 03:41:10;;;;;;;6.07;3.35;;;19.30;76.60;;;;;;5008584;28;20046;-62
2023/07/08 03:43:56;;;;;;;8.65;3.72;;;19.40;76.80;;;;;;5009695;28;20044;-62
2023/07/08 03:46:44;;;;;;;5.00;3.15;;;19.40;77.10;;;;;;5008175;28;20041;-62
2023/07/08 03:49:30;;;;;;;4.75;3.35;;;19.40;77.30;;;;;;5000992;28;20656;-62
2023/07/08 03:52:17;;;;;;;7.07;2.90;;;19.40;77.40;;;;;;5010910;28;20025;-62
2023/07/08 03:55:03;;;;;;;5.97;3.63;;;19.50;77.30;;;;;;5002633;28;20034;-62
2023/07/08 03:57:49;;;;;;;5.13;3.10;;;19.50;77.50;;;;;;5010048;28;20111;-62
2023/07/08 04:00:35;;;;;;;7.47;3.85;;;19.50;77.50;;;;;;5010323;28;20471;-62
2023/07/08 04:03:21;;;;;;;5.82;3.55;;;19.60;77.80;;;;;;5011034;28;20041;-62
2023/07/08 04:06:07;;;;;;;7.15;3.88;;;19.60;77.80;;;;;;5008528;28;20112;-62
2023/07/08 04:08:53;;;;;;;4.90;3.10;;;19.60;77.90;;;;;;5011619;28;20159;-62
2023/07/08 04:11:39;;;;;;;4.45;3.42;;;19.60;77.40;;;;;;5010640;28;20084;-63
2023/07/08 04:14:25;;;;;;;7.63;3.33;;;19.70;77.30;;;;;;5013654;28;20376;-63
2023/07/08 04:17:12;;;;;;;5.68;3.42;;;19.70;77.50;;;;;;5012497;28;20046;-64
2023/07/08 04:20:03;;;;;;;7.22;3.88;;;19.80;77.20;;;;;;5003729;28;20034;-62
2023/07/08 04:22:49;;;;;;;5.13;2.90;;;19.80;76.90;;;;;;4992471;28;20038;-62
2023/07/08 04:25:35;;;;;;;5.78;3.30;;;19.80;76.60;;;;;;5007676;28;20036;-62
2023/07/08 04:28:21;;;;;;;5.35;3.42;;;19.90;77.20;;;;;;5008935;28;20390;-62
2023/07/08 04:31:07;;;;;;;5.57;3.00;;;19.90;76.60;;;;;;5002741;28;20037;-63
2023/07/08 04:33:53;;;;;;;5.20;3.00;;;19.90;76.60;;;;;;5007695;28;20061;-63
2023/07/08 04:36:39;;;;;;;5.07;2.88;;;19.90;76.70;;;;;;5009971;28;20037;-63
2023/07/08 04:39:25;;;;;;;5.32;3.00;;;20.00;77.10;;;;;;5008869;28;20038;-63
2023/07/08 04:42:17;;;;;;;5.63;3.25;;;20.00;77.50;;;;;;5011012;28;20460;-63
2023/07/08 04:45:05;;;;;;;4.85;3.00;;;20.10;77.60;;;;;;5007880;28;20041;-63
2023/07/08 04:47:52;;;;;;;6.53;3.47;;;20.10;77.60;;;;;;5016075;28;20037;-63
2023/07/08 04:50:43;;;;;;;4.65;3.25;;;20.20;77.10;;;;;;4991777;28;20444;-63
2023/07/08 04:53:29;;;;;;;4.80;3.50;;;20.20;76.80;;;;;;4991981;28;20113;-63
2023/07/08 04:56:15;;;;;;;3.53;2.63;;;20.30;76.70;;;;;;5007611;28;20095;-63
2023/07/08 04:59:01;;;;;;;9.60;3.50;;;20.30;76.80;;;;;;5008333;28;20469;-63
2023/07/08 05:01:47;;;;;;;6.10;3.10;;;20.40;76.70;;;;;;5007458;28;20046;-63
2023/07/08 05:04:34;;;;;;;5.13;3.13;;;20.50;76.70;;;;;;5007655;28;20763;-63
2023/07/08 05:07:20;;;;;;;4.55;2.90;;;20.50;77.00;;;;;;5000770;28;20490;-64
2023/07/08 05:10:06;;;;;;;3.92;2.92;;;20.50;76.90;;;;;;5010842;28;20752;-64
2023/07/08 05:12:52;;;;;;;5.93;3.10;;;20.60;76.80;;;;;;5008695;28;20057;-63
2023/07/08 05:15:38;;;;;;;6.72;2.85;;;20.60;76.40;;;;;;5006957;28;20653;-63
2023/07/08 05:18:24;;;;;;;7.15;3.60;;;20.70;76.30;;;;;;5004742;28;20045;-64
2023/07/08 05:21:11;;;;;;;5.25;3.13;;;20.80;76.10;;;;;;5006655;28;20034;-63
2023/07/08 05:23:57;;;;;;;4.22;2.90;;;20.80;75.70;;;;;;5004984;28;20046;-63
2023/07/08 05:26:42;;;;;;;3.95;2.95;;;20.90;75.80;;;;;;4998898;28;20037;-64
2023/07/08 05:29:29;;;;;;;5.13;3.10;;;21.00;75.90;;;;;;5007584;28;20486;-63
2023/07/08 05:32:15;;;;;;;5.63;3.67;;;21.00;75.80;;;;;;5005922;28;20048;-65
2023/07/08 05:35:01;;;;;;;6.10;3.60;;;21.10;75.70;;;;;;5008558;28;20033;-63
2023/07/08 05:37:47;;;;;;;3.70;2.70;;;21.20;75.60;;;;;;5007282;28;20052;-63
2023/07/08 05:40:33;;;;;;;4.32;3.15;;;21.20;75.40;;;;;;4994048;28;20044;-66
2023/07/08 05:43:19;;;;;;;4.97;3.25;;;21.30;75.10;;;;;;5009487;28;20046;-66
2023/07/08 05:46:05;;;;;;;6.85;3.00;;;21.30;74.60;;;;;;5008514;28;20100;-66
2023/07/08 05:48:51;;;;;;;3.83;2.70;;;21.40;74.60;;;;;;5006742;28;20099;-66
2023/07/08 05:51:37;;;;;;;4.25;3.22;;;21.40;74.10;;;;;;4992346;28;20041;-66
2023/07/08 05:54:23;;;;;;;4.03;3.00;;;21.50;73.90;;;;;;5013185;28;20091;-67
2023/07/08 05:57:10;;;;;;;3.95;2.90;;;21.50;73.70;;;;;;4995497;28;20105;-68
2023/07/08 05:59:56;;;;;;;5.05;3.13;;;21.60;73.70;;;;;;4995753;28;20046;-68
2023/07/08 06:02:42;;;;;;;5.30;3.08;;;21.70;73.50;;;;;;5006634;28;20030;-67
2023/07/08 06:05:28;;;;;;;5.50;3.50;;;21.70;73.20;;;;;;5007851;28;20081;-67
2023/07/08 06:08:14;;;;;;;4.22;2.97;;;21.80;73.30;;;;;;5008674;28;20037;-68
2023/07/08 06:11:00;;;;;;;4.28;3.08;;;21.80;73.10;;;;;;5006926;28;20026;-69
2023/07/08 06:13:46;;;;;;;7.18;3.33;;;21.90;72.90;;;;;;5008648;28;20843;-68
2023/07/08 06:16:34;;;;;;;4.47;2.88;;;22.00;73.10;;;;;;5006265;28;20030;-69
2023/07/08 06:19:21;;;;;;;6.50;3.45;;;22.10;72.70;;;;;;5003660;28;20104;-68
2023/07/08 06:22:07;;;;;;;5.80;3.45;;;22.10;72.50;;;;;;4995794;28;20112;-68
2023/07/08 06:24:53;;;;;;;6.68;3.55;;;22.20;72.20;;;;;;5000291;28;20251;-66
2023/07/08 06:27:39;;;;;;;4.88;3.30;;;22.30;72.30;;;;;;5000699;28;20042;-67
2023/07/08 06:30:24;;;;;;;5.15;3.42;;;22.30;72.10;;;;;;4990324;28;20042;-67
2023/07/08 06:33:11;;;;;;;3.90;2.83;;;22.40;72.10;;;;;;5002671;28;20030;-67
2023/07/08 06:35:57;;;;;;;5.63;2.90;;;22.50;71.70;;;;;;5006073;28;20069;-66
2023/07/08 06:38:43;;;;;;;4.22;3.45;;;22.60;71.20;;;;;;5004518;28;20050;-67
2023/07/08 06:41:29;;;;;;;3.97;2.40;;;22.70;71.50;;;;;;5004150;28;20048;-67
2023/07/08 06:44:15;;;;;;;4.15;2.78;;;22.70;71.30;;;;;;5003739;28;20037;-68
2023/07/08 06:47:01;;;;;;;5.03;2.97;;;22.80;71.00;;;;;;5007937;28;20088;-68
2023/07/08 06:49:47;;;;;;;6.18;3.03;;;22.90;71.30;;;;;;5010221;28;20061;-67
2023/07/08 06:52:36;;;;;;;4.03;2.67;;;22.90;71.00;;;;;;5009049;28;20088;-68
2023/07/08 06:55:23;;;;;;;5.32;3.13;;;23.00;70.70;;;;;;5004449;28;20439;-67
2023/07/08 06:58:09;;;;;;;3.95;2.95;;;23.10;70.40;;;;;;5009950;28;20541;-67
2023/07/08 07:00:55;;;;;;;6.28;2.97;;;23.20;70.40;;;;;;5000012;28;20487;-68
2023/07/08 07:03:43;;;;;;;7.32;3.05;;;23.30;70.40;;;;;;5008510;28;20451;-66
2023/07/08 07:06:29;;;;;;;4.15;3.25;;;23.40;70.30;;;;;;5001622;28;20128;-66
2023/07/08 07:09:15;;;;;;;5.78;3.15;;;23.40;70.50;;;;;;5000197;28;20565;-68
2023/07/08 07:12:01;;;;;;;3.83;2.65;;;23.50;69.60;;;;;;5002633;28;20439;-67
2023/07/08 07:14:52;;;;;;;8.63;3.72;;;23.60;69.30;;;;;;5003027;28;20536;-67
2023/07/08 07:17:38;;;;;;;5.70;3.08;;;23.70;69.40;;;;;;5002987;28;20061;-67
2023/07/08 07:20:25;;;;;;;5.50;3.00;;;23.70;69.80;;;;;;5007866;28;20088;-66
2023/07/08 07:23:10;;;;;;;5.30;3.42;;;23.80;69.00;;;;;;5008993;28;20029;-66
2023/07/08 07:25:57;;;;;;;5.55;2.60;;;23.90;69.10;;;;;;4996519;28;20046;-66
2023/07/08 07:28:43;;;;;;;4.07;2.47;;;24.00;69.10;;;;;;5006212;28;20038;-66
2023/07/08 07:31:29;;;;;;;3.17;2.08;;;24.10;68.90;;;;;;5001729;28;20502;-66
2023/07/08 07:34:16;;;;;;;4.18;3.35;;;24.20;68.60;;;;;;5000283;28;20682;-66
2023/07/08 07:37:02;;;;;;;6.30;2.60;;;24.30;69.00;;;;;;4993238;28;20502;-66
2023/07/08 07:39:48;;;;;;;4.05;2.83;;;24.30;68.80;;;;;;5005268;28;20038;-66
2023/07/08 07:42:34;;;;;;;4.38;2.25;;;24.40;68.70;;;;;;5010074;28;20062;-67
2023/07/08 07:45:22;;;;;;;4.15;2.85;;;24.50;68.10;;;;;;4998052;28;20038;-66
2023/07/08 07:48:08;;;;;;;6.75;3.10;;;24.60;68.40;;;;;;5003675;28;20033;-66
2023/07/08 07:50:54;;;;;;;4.78;2.47;;;24.70;68.20;;;;;;5003569;28;20052;-66
2023/07/08 07:53:40;;;;;;;4.78;2.45;;;24.70;67.60;;;;;;4996570;28;20089;-66
2023/07/08 07:56:26;;;;;;;3.40;2.40;;;24.80;67.60;;;;;;5002783;28;20105;-66
2023/07/08 07:59:12;;;;;;;3.95;2.60;;;24.90;67.90;;;;;;5000454;28;20049;-64
2023/07/08 08:01:58;;;;;;;3.97;2.50;;;24.90;66.60;;;;;;5001810;28;20037;-65
2023/07/08 08:04:44;;;;;;;5.20;2.65;;;25.00;67.00;;;;;;5001799;28;20034;-64
2023/07/08 08:07:30;;;;;;;5.32;2.97;;;25.10;66.70;;;;;;5000849;28;20789;-64
2023/07/08 08:10:16;;;;;;;4.88;3.00;;;25.20;66.50;;;;;;5003216;28;20045;-64
2023/07/08 08:13:02;;;;;;;4.75;2.35;;;25.30;66.50;;;;;;5000608;28;20469;-64
2023/07/08 08:15:48;;;;;;;6.40;3.00;;;25.40;66.30;;;;;;4994532;28;20031;-64
2023/07/08 08:18:34;;;;;;;3.67;2.65;;;25.50;66.10;;;;;;5008759;28;20454;-64
2023/07/08 08:21:21;;;;;;;3.63;2.67;;;25.60;66.10;;;;;;5004253;28;20105;-64
2023/07/08 08:24:07;;;;;;;4.88;2.47;;;25.80;65.60;;;;;;5007055;28;20046;-64
2023/07/08 08:26:53;;;;;;;3.17;2.47;;;25.80;64.70;;;;;;5000807;28;20117;-63
2023/07/08 08:29:39;;;;;;;4.68;2.67;;;25.90;64.50;;;;;;5008659;28;20103;-63
2023/07/08 08:32:25;;;;;;;4.90;2.92;;;26.00;64.50;;;;;;5011486;28;20034;-63
2023/07/08 08:35:11;;;;;;;3.65;2.35;;;26.10;64.30;;;;;;5007161;28;20497;-60
2023/07/08 08:37:56;;;;;;;3.17;2.38;;;26.10;64.30;;;;;;5010986;28;20045;-60
2023/07/08 08:40:43;;;;;;;4.38;2.40;;;26.20;64.60;;;;;;5008627;28;20503;-61
2023/07/08 08:43:36;;;;;;;6.75;3.03;;;26.30;64.40;;;;;;5003719;28;20045;-61
2023/07/08 08:46:32;;;;;;;2.53;2.22;;;26.40;64.90;;;;;;5008637;28;20041;-62
2023/07/08 08:49:26;;;;;;;5.75;2.33;;;26.50;64.20;;;;;;5001726;28;20156;-61
2023/07/08 08:52:14;;;;;;;3.13;2.38;;;26.60;64.40;;;;;;5001463;28;20034;-61
2023/07/08 08:55:00;;;;;;;5.50;3.05;;;26.60;62.50;;;;;;5018303;28;20403;-61
2023/07/08 08:58:21;;;;;;;8.02;2.67;;;26.70;62.50;;;;;;5002821;28;20493;-60
2023/07/08 09:01:16;;;;;;;2.92;2.13;;;26.80;62.40;;;;;;5002147;28;20050;-60
2023/07/08 09:04:17;;;;;;;4.80;2.47;;;26.90;62.00;;;;;;5006326;28;20030;-61
2023/07/08 09:07:17;;;;;;;4.38;2.70;;;27.00;62.20;;;;;;4998618;28;20120;-61
2023/07/08 09:10:32;;;;;;;4.45;2.45;;;27.10;62.40;;;;;;4996902;28;20398;-61
2023/07/08 09:13:27;;;;;;;4.68;2.60;;;27.20;61.60;;;;;;4998140;28;20157;-61
2023/07/08 09:16:45;;;;;;;5.07;2.45;;;27.30;61.10;;;;;;4990207;28;20026;-61
2023/07/08 09:19:45;;;;;;;3.13;2.28;;;27.30;60.90;;;;;;4985135;28;20618;-60
2023/07/08 09:22:45;;;;;;;5.80;2.47;;;27.40;59.80;;;;;;4998662;28;20146;-60
2023/07/08 09:25:41;;;;;;;3.65;2.20;;;27.50;58.10;;;;;;5006055;28;20050;-61
2023/07/08 09:28:42;;;;;;;4.40;2.05;;;27.50;56.80;;;;;;4995019;28;20030;-60
2023/07/08 09:31:31;;;;;;;9.10;1.92;;;27.60;56.80;;;;;;5005650;28;20049;-60
2023/07/08 09:34:23;;;;;;;3.65;2.00;;;27.60;57.00;;;;;;4994484;28;20200;-59
2023/07/08 09:37:20;;;;;;;3.75;2.60;;;27.80;58.00;;;;;;5006423;28;20375;-61
2023/07/08 09:40:31;;;;;;;3.42;2.22;;;27.90;57.60;;;;;;5006099;28;20514;-61
2023/07/08 09:43:26;;;;;;;2.80;1.90;;;28.00;57.10;;;;;;4997198;28;20503;-61
2023/07/08 09:46:12;;;;;;;;;;;28.10;56.50;;;;;;4998222;28;20045;-62
2023/07/08 09:48:58;;;;;;;3.55;1.95;;;28.20;57.80;;;;;;5007626;28;19917;-61
2023/07/08 09:51:45;;;;;;;6.75;2.03;;;28.20;56.20;;;;;;5008283;28;20049;-60
2023/07/08 09:54:32;;;;;;;6.93;2.33;;;28.20;53.90;;;;;;5004096;28;20038;-60
2023/07/08 09:57:28;;;;;;;3.50;2.05;;;28.20;54.10;;;;;;5003820;28;20406;-61
2023/07/08 10:00:25;;;;;;;2.70;2.25;;;28.30;53.50;;;;;;5000672;28;20100;-61
2023/07/08 10:03:23;;;;;;;4.40;2.15;;;28.40;53.00;;;;;;4991194;28;20042;-60
2023/07/08 10:06:24;;;;;;;2.63;2.00;;;28.50;53.70;;;;;;5003598;28;20045;-61
2023/07/08 10:09:19;;;;;;;2.55;1.75;;;28.60;54.60;;;;;;5007875;28;20040;-61
2023/07/08 10:12:11;;;;;;;4.40;2.15;;;28.60;53.70;;;;;;5006475;28;20514;-60
2023/07/08 10:15:18;;;;;;;5.97;2.50;;;28.70;53.50;;;;;;4999903;28;20029;-61
2023/07/08 10:18:04;;;;;;;3.45;2.45;;;28.80;54.30;;;;;;4994395;28;20038;-62
2023/07/08 10:21:00;;;;;;;2.10;1.83;;;28.80;53.50;;;;;;5003636;28;20126;-60
2023/07/08 10:24:20;;;;;;;3.25;2.10;;;28.90;53.40;;;;;;5012180;28;20500;-60
2023/07/08 10:27:19;;;;;;;4.93;1.90;;;28.90;53.30;;;;;;4998294;28;20026;-60
2023/07/08 10:30:25;;;;;;;2.97;1.98;;;29.00;52.90;;;;;;4995594;28;20491;-60
2023/07/08 10:33:38;;;;;;;3.30;2.08;;;29.00;52.40;;;;;;5011029;28;20053;-61
2023/07/08 10:36:38;;;;;;;3.80;1.92;;;29.10;52.70;;;;;;4996131;28;20064;-61
2023/07/08 10:39:33;;;;;;;2.92;1.95;;;29.20;52.50;;;;;;5002442;28;20050;-61
2023/07/08 10:42:46;;;;;;;4.47;2.17;;;29.20;52.50;;;;;;4999206;28;20042;-62
2023/07/08 10:45:40;;;;;;;4.63;2.35;;;29.30;52.30;;;;;;5009178;28;20041;-61
2023/07/08 10:48:41;;;;;;;4.18;2.35;;;29.30;50.50;;;;;;4994483;28;20037;-61
2023/07/08 10:51:40;;;;;;;3.17;2.10;;;29.30;51.00;;;;;;5004755;28;20050;-61
2023/07/08 10:54:48;;;;;;;3.83;2.20;;;29.30;51.00;;;;;;5008082;28;20491;-61
2023/07/08 10:58:13;;;;;;;3.70;2.30;;;29.40;51.50;;;;;;5009658;28;20076;-61
2023/07/08 11:01:17;;;;;;;2.90;2.20;;;29.40;51.60;;;;;;4998448;28;20041;-61
2023/07/08 11:04:03;;;;;;;;;;;29.50;51.50;;;;;;5009737;28;20335;-61
2023/07/08 11:06:59;;;;;;;3.35;1.98;;;29.60;52.30;;;;;;5001826;28;20277;-61
2023/07/08 11:10:22;;;;;;;4.13;2.03;;;29.60;51.10;;;;;;5009237;28;20044;-61
2023/07/08 11:13:17;;;;;;;4.97;2.33;;;29.60;51.30;;;;;;4999101;28;20050;-61
2023/07/08 11:16:12;;;;;;;3.03;1.90;;;29.70;51.10;;;;;;5004409;28;20364;-61
2023/07/08 11:19:11;;;;;;;3.55;2.00;;;29.70;50.60;;;;;;5008817;28;20415;-61
2023/07/08 11:22:00;;;;;;;3.40;2.00;;;29.80;50.30;;;;;;5009949;28;20042;-61
2023/07/08 11:24:50;;;;;;;2.92;2.30;;;29.80;50.10;;;;;;5003490;28;20034;-61
2023/07/08 11:27:41;;;;;;;3.30;2.17;;;29.90;50.50;;;;;;4997222;28;20043;-62
2023/07/08 11:30:29;;;;;;;2.60;2.10;;;29.90;49.50;;;;;;5004023;28;20041;-61
2023/07/08 11:33:19;;;;;;;2.80;2.10;;;29.90;49.50;;;;;;5011521;28;20034;-61
2023/07/08 11:36:06;;;;;;;3.28;2.13;;;29.90;49.60;;;;;;5002605;28;20045;-61
2023/07/08 11:38:57;;;;;;;8.65;2.30;;;30.00;49.30;;;;;;5007394;28;20054;-61
2023/07/08 11:41:43;;;;;;;3.25;2.30;;;30.00;50.60;;;;;;5007664;28;20034;-61
2023/07/08 11:44:29;;;;;;;2.63;1.92;;;30.10;49.30;;;;;;5004238;28;20057;-61
2023/07/08 11:47:24;;;;;;;4.03;2.15;;;30.10;48.70;;;;;;5012382;28;20038;-60
2023/07/08 11:50:19;;;;;;;4.43;2.20;;;30.10;48.80;;;;;;5007828;28;20096;-61
2023/07/08 11:53:11;;;;;;;5.20;2.10;;;30.10;49.00;;;;;;5003073;28;20029;-61
2023/07/08 11:56:00;;;;;;;4.68;2.15;;;30.10;49.40;;;;;;5004568;28;20034;-61
2023/07/08 11:58:51;;;;;;;4.05;2.17;;;30.20;48.80;;;;;;4999732;28;20056;-61
2023/07/08 12:01:47;;;;;;;3.05;2.22;;;30.20;49.00;;;;;;5001472;28;20025;-61
2023/07/08 12:04:37;;;;;;;3.08;1.98;;;30.20;49.00;;;;;;5003104;28;20549;-62
2023/07/08 12:07:40;;;;;;;5.35;2.28;;;30.30;49.00;;;;;;5002978;28;20033;-61
2023/07/08 12:10:50;;;;;;;3.13;2.20;;;30.30;49.00;;;;;;5005134;28;20030;-64
2023/07/08 12:13:36;;;;;;;3.50;2.33;;;30.30;48.90;;;;;;4999984;28;20082;-61
2023/07/08 12:16:22;;;;;;;3.63;2.70;;;30.40;48.60;;;;;;5007183;28;20026;-61
2023/07/08 12:19:15;;;;;;;4.25;2.35;;;30.40;48.40;;;;;;4998207;28;20049;-61
2023/07/08 12:22:01;;;;;;;3.45;2.40;;;30.50;48.10;;;;;;4998144;28;20065;-61
2023/07/08 12:24:47;;;;;;;2.80;2.20;;;30.60;48.90;;;;;;5003994;28;20030;-61
2023/07/08 12:27:33;;;;;;;3.63;2.28;;;30.60;48.90;;;;;;5006606;28;20471;-61
2023/07/08 12:30:19;;;;;;;4.85;1.90;;;30.70;48.40;;;;;;5005408;28;20061;-61
2023/07/08 12:33:24;;;;;;;3.85;2.40;;;30.70;48.20;;;;;;4994033;28;20543;-61
2023/07/08 12:36:17;;;;;;;;;;;30.80;46.40;;;;;;5003695;28;20034;-62
2023/07/08 12:39:05;;;;;;;2.92;1.92;;;30.80;48.10;;;;;;4992554;28;19972;-60
2023/07/08 12:41:51;;;;;;;3.80;2.35;;;30.80;47.10;;;;;;5005448;28;20916;-61
2023/07/08 12:44:42;;;;;;;3.17;2.00;;;30.80;46.00;;;;;;4997396;28;20057;-66
2023/07/08 12:47:28;;;;;;;2.75;1.95;;;30.80;46.00;;;;;;5008914;28;20026;-66
2023/07/08 12:50:14;;;;;;;2.90;1.85;;;30.90;46.50;;;;;;4996295;28;20558;-67
2023/07/08 12:53:09;;;;;;;4.05;1.98;;;30.90;45.90;;;;;;4992217;28;20471;-67
2023/07/08 12:55:58;;;;;;;3.10;2.28;;;31.00;45.80;;;;;;5007960;28;20049;-67
2023/07/08 12:58:50;;;;;;;7.32;2.40;;;31.10;46.00;;;;;;5009370;28;20034;-67
2023/07/08 13:01:36;;;;;;;2.50;1.65;;;31.10;45.60;;;;;;5006199;28;20017;-66
2023/07/08 13:04:22;;;;;;;3.22;2.25;;;31.20;45.50;;;;;;5005715;28;20042;-66
2023/07/08 13:07:23;;;;;;;3.00;2.25;;;31.20;45.20;;;;;;5004053;28;20113;-65
2023/07/08 13:10:20;;;;;;;3.70;2.55;;;31.20;44.80;;;;;;5005562;28;20121;-65
2023/07/08 13:13:08;;;;;;;3.47;2.50;;;31.30;44.70;;;;;;5004228;28;20061;-65
2023/07/08 13:15:55;;;;;;;5.88;2.55;;;31.30;44.60;;;;;;5006620;28;20038;-66
2023/07/08 13:18:42;;;;;;;3.85;2.22;;;31.40;44.80;;;;;;4997557;28;20713;-65
2023/07/08 13:21:30;;;;;;;3.20;2.42;;;31.60;44.30;;;;;;5005572;28;20550;-66
2023/07/08 13:24:18;;;;;;;5.70;2.75;;;31.60;44.10;;;;;;5001451;28;20041;-66
2023/07/08 13:27:06;;;;;;;3.63;2.60;;;31.70;44.30;;;;;;4990547;28;20396;-66
2023/07/08 13:29:53;;;;;;;4.53;2.58;;;31.70;44.30;;;;;;5002173;28;20034;-65
2023/07/08 13:32:39;;;;;;;2.85;2.10;;;31.80;43.80;;;;;;4991381;28;20097;-66
2023/07/08 13:35:36;;;;;;;3.72;2.53;;;31.90;44.10;;;;;;4999889;28;20503;-66
2023/07/08 13:38:33;;;;;;;5.65;2.65;;;31.90;44.60;;;;;;5007318;28;20038;-66
2023/07/08 13:41:23;;;;;;;3.40;2.42;;;32.10;44.20;;;;;;5005203;28;20037;-66
2023/07/08 13:44:10;;;;;;;3.63;2.75;;;32.10;43.70;;;;;;5002524;28;20434;-66
2023/07/08 13:46:59;;;;;;;7.43;2.75;;;32.20;43.50;;;;;;5002763;28;20037;-75
2023/07/08 13:49:47;;;;;;;2.97;1.98;;;32.30;43.90;;;;;;4994761;28;20037;-75
2023/07/08 13:52:33;;;;;;;3.33;2.40;;;32.30;43.30;;;;;;5012190;28;20368;-76
2023/07/08 13:55:21;;;;;;;2.83;2.15;;;32.30;42.30;;;;;;5011719;28;20038;-82
2023/07/08 13:58:10;;;;;;;5.63;2.45;;;32.30;42.70;;;;;;5015670;28;20092;-76
2023/07/08 14:00:57;;;;;;;2.67;2.00;;;32.30;42.20;;;;;;5007673;28;20030;-74
2023/07/08 14:03:44;;;;;;;3.55;2.17;;;32.40;42.40;;;;;;5003760;28;20515;-77
2023/07/08 14:06:33;;;;;;;3.53;2.38;;;32.40;42.10;;;;;;5011600;28;20483;-77
2023/07/08 14:09:21;;;;;;;4.70;2.80;;;32.40;42.40;;;;;;5010066;28;20530;-73
2023/07/08 14:12:08;;;;;;;4.63;2.55;;;32.50;42.20;;;;;;5000494;28;20418;-75
2023/07/08 14:14:54;;;;;;;3.72;2.08;;;32.60;42.60;;;;;;5007247;28;20487;-75
2023/07/08 14:17:40;;;;;;;5.55;2.60;;;32.70;42.40;;;;;;4994728;28;20069;-75
2023/07/08 14:20:27;;;;;;;3.65;2.58;;;32.80;42.10;;;;;;4998062;28;20505;-75
2023/07/08 14:23:13;;;;;;;4.10;2.70;;;32.80;42.00;;;;;;4994605;28;20084;-70
2023/07/08 14:25:59;;;;;;;3.78;2.90;;;32.90;41.60;;;;;;5005566;28;20037;-76
2023/07/08 14:28:45;;;;;;;5.45;2.95;;;32.90;41.20;;;;;;4991660;28;20113;-77
2023/07/08 14:31:30;;;;;;;4.20;3.35;;;32.80;40.80;;;;;;4995274;28;20092;-77
2023/07/08 14:34:25;;;;;;;6.35;4.03;;;32.80;41.00;;;;;;4997660;28;20123;-77
2023/07/08 14:37:14;;;;;;;4.53;2.95;;;32.80;41.40;;;;;;4994392;28;20030;-76
2023/07/08 14:40:11;;;;;;;5.85;3.25;;;32.80;40.80;;;;;;4996587;28;20065;-78
2023/07/08 14:43:21;;;;;;;5.43;3.00;;;32.70;41.10;;;;;;5008583;28;20109;-76